createdAt,value
2023-05-26T00:00:52.501Z,9.747248
2023-05-26T00:01:52.488Z,9.747442
2023-05-26T00:02:52.590Z,9.747448
2023-05-26T00:03:52.517Z,9.747497
2023-05-26T00:04:52.474Z,9.747445
2023-05-26T00:05:52.459Z,9.747549
2023-05-26T00:06:52.474Z,9.747491
2023-05-26T00:07:52.467Z,9.747330
2023-05-26T00:08:52.446Z,9.747443
2023-05-26T00:09:52.433Z,9.747417
2023-05-26T00:10:52.414Z,9.747361
2023-05-26T00:11:52.433Z,9.747305
2023-05-26T00:12:52.461Z,9.747368
2023-05-26T00:13:52.406Z,9.747248
2023-05-26T00:14:52.400Z,9.747419
2023-05-26T00:15:52.399Z,9.747396
2023-05-26T00:16:52.392Z,9.747513
2023-05-26T00:17:52.439Z,9.747510
2023-05-26T00:18:52.361Z,9.747519
2023-05-26T00:19:52.373Z,9.747552
2023-05-26T00:20:52.343Z,9.747517
2023-05-26T00:21:52.370Z,9.747436
2023-05-26T00:22:52.341Z,9.747382
2023-05-26T00:23:52.315Z,9.747485
2023-05-26T00:24:52.323Z,9.747517
2023-05-26T00:25:52.315Z,9.747463
2023-05-26T00:26:52.314Z,9.747331
2023-05-26T00:27:52.286Z,9.747377
2023-05-26T00:28:52.287Z,9.747393
2023-05-26T00:29:52.266Z,9.747447
2023-05-26T00:30:52.295Z,9.747442
2023-05-26T00:31:52.394Z,9.747349
2023-05-26T00:32:52.307Z,9.747375
2023-05-26T00:33:52.240Z,9.747392
2023-05-26T00:34:52.258Z,9.747385
2023-05-26T00:35:52.256Z,9.747344
2023-05-26T00:36:52.236Z,9.747288
2023-05-26T00:37:52.230Z,9.747431
2023-05-26T00:38:52.192Z,9.747345
2023-05-26T00:39:52.186Z,9.747310
2023-05-26T00:40:52.261Z,9.747414
2023-05-26T00:41:52.195Z,9.747406
2023-05-26T00:42:52.181Z,9.747431
2023-05-26T00:43:52.167Z,9.747494
2023-05-26T00:44:52.186Z,9.747360
2023-05-26T00:45:52.179Z,9.747374
2023-05-26T00:46:52.160Z,9.747491
2023-05-26T00:47:52.165Z,9.747528
2023-05-26T00:48:52.119Z,9.747363
2023-05-26T00:49:52.137Z,9.747472
2023-05-26T00:50:53.100Z,9.747362
2023-05-26T00:51:52.122Z,9.747546
2023-05-26T00:52:52.102Z,9.747574
2023-05-26T00:53:52.082Z,9.747458
2023-05-26T00:54:52.101Z,9.747334
2023-05-26T00:55:52.077Z,9.747265
2023-05-26T00:56:52.079Z,9.747313
2023-05-26T00:57:52.063Z,9.747446
2023-05-26T00:58:52.073Z,9.747494
2023-05-26T00:59:52.074Z,9.747443
2023-05-26T01:00:52.075Z,9.747452
2023-05-26T01:01:52.021Z,9.747610
2023-05-26T01:02:52.053Z,9.747429
2023-05-26T01:03:52.152Z,9.747519
2023-05-26T01:04:52.001Z,9.747510
2023-05-26T01:05:51.994Z,9.747503
2023-05-26T01:06:51.997Z,9.747290
2023-05-26T01:07:52.044Z,9.747358
2023-05-26T01:08:51.999Z,9.747399
2023-05-26T01:09:52.003Z,9.747393
2023-05-26T01:10:51.949Z,9.747278
2023-05-26T01:11:51.974Z,9.747334
2023-05-26T01:12:51.963Z,9.747500
2023-05-26T01:13:51.971Z,9.747414
2023-05-26T01:14:51.937Z,9.747482
2023-05-26T01:15:51.936Z,9.747503
2023-05-26T01:16:51.929Z,9.747467
2023-05-26T01:17:52.024Z,9.747396
2023-05-26T01:18:51.902Z,9.747405
2023-05-26T01:19:51.904Z,9.747483
2023-05-26T01:20:51.900Z,9.747482
2023-05-26T01:21:51.883Z,9.747396
2023-05-26T01:22:52.031Z,9.747411
2023-05-26T01:23:51.856Z,9.747297
2023-05-26T01:24:51.866Z,9.747431
2023-05-26T01:25:51.842Z,9.747330
2023-05-26T01:26:51.829Z,9.747581
2023-05-26T01:27:51.860Z,9.747550
2023-05-26T01:28:51.829Z,9.747380
2023-05-26T01:29:51.816Z,9.747358
2023-05-26T01:30:51.809Z,9.747482
2023-05-26T01:31:51.796Z,9.747515
2023-05-26T01:32:51.898Z,9.747401
2023-05-26T01:33:51.806Z,9.747357
2023-05-26T01:34:51.811Z,9.747413
2023-05-26T01:35:51.770Z,9.747388
2023-05-26T01:36:51.776Z,9.747350
2023-05-26T01:37:51.778Z,9.747342
2023-05-26T01:38:51.751Z,9.747400
2023-05-26T01:39:51.736Z,9.747331
2023-05-26T01:40:51.734Z,9.747334
2023-05-26T01:41:51.769Z,9.747412
2023-05-26T01:42:51.742Z,9.747163
2023-05-26T01:43:51.713Z,9.747380
2023-05-26T01:44:51.703Z,9.747364
2023-05-26T01:45:51.731Z,9.747477
2023-05-26T01:46:51.732Z,9.747472
2023-05-26T01:47:51.701Z,9.747284
2023-05-26T01:48:51.688Z,9.747311
2023-05-26T01:49:51.660Z,9.747405
2023-05-26T01:50:51.663Z,9.747405
2023-05-26T01:51:51.678Z,9.747436
2023-05-26T01:52:51.649Z,9.747324
2023-05-26T01:53:51.638Z,9.747333
2023-05-26T01:54:51.629Z,9.747381
2023-05-26T01:55:51.649Z,9.747277
2023-05-26T01:56:51.643Z,9.747308
2023-05-26T01:57:51.607Z,9.747327
2023-05-26T01:58:51.608Z,9.747426
2023-05-26T01:59:51.593Z,9.747344
2023-05-26T02:00:51.618Z,9.747380
2023-05-26T02:01:51.639Z,9.747414
2023-05-26T02:02:51.682Z,9.747360
2023-05-26T02:03:51.660Z,9.747365
2023-05-26T02:04:52.563Z,9.747356
2023-05-26T02:05:51.609Z,9.747394
2023-05-26T02:06:51.530Z,9.747345
2023-05-26T02:07:51.531Z,9.747395
2023-05-26T02:08:51.510Z,9.747355
2023-05-26T02:09:51.522Z,9.747405
2023-05-26T02:10:51.536Z,9.747334
2023-05-26T02:11:51.483Z,9.747307
2023-05-26T02:12:51.478Z,9.747345
2023-05-26T02:13:51.482Z,9.747407
2023-05-26T02:14:51.495Z,9.747352
2023-05-26T02:15:51.509Z,9.747308
2023-05-26T02:16:51.455Z,9.747331
2023-05-26T02:17:51.483Z,9.747304
2023-05-26T02:18:51.441Z,9.747377
2023-05-26T02:19:51.455Z,9.747231
2023-05-26T02:20:51.420Z,9.747246
2023-05-26T02:21:51.407Z,9.747343
2023-05-26T02:22:51.411Z,9.747371
2023-05-26T02:23:51.407Z,9.747270
2023-05-26T02:24:51.419Z,9.747356
2023-05-26T02:25:51.405Z,9.747380
2023-05-26T02:26:51.373Z,9.747423
2023-05-26T02:27:51.370Z,9.747360
2023-05-26T02:28:51.446Z,9.747387
2023-05-26T02:29:52.372Z,9.747347
2023-05-26T02:30:51.350Z,9.747407
2023-05-26T02:31:51.355Z,9.747393
2023-05-26T02:32:51.378Z,9.747433
2023-05-26T02:33:51.361Z,9.747416
2023-05-26T02:34:51.346Z,9.747392
2023-05-26T02:35:51.306Z,9.747376
2023-05-26T02:36:51.293Z,9.747417
2023-05-26T02:37:51.294Z,9.747386
2023-05-26T02:38:51.297Z,9.747425
2023-05-26T02:39:51.272Z,9.747364
2023-05-26T02:40:51.297Z,9.747483
2023-05-26T02:41:51.257Z,9.747417
2023-05-26T02:42:51.277Z,9.747394
2023-05-26T02:43:51.276Z,9.747390
2023-05-26T02:44:51.237Z,9.747283
2023-05-26T02:45:51.272Z,9.747357
2023-05-26T02:46:51.215Z,9.747458
2023-05-26T02:47:51.244Z,9.747383
2023-05-26T02:48:51.248Z,9.747150
2023-05-26T02:49:51.193Z,9.747210
2023-05-26T02:50:51.183Z,9.747486
2023-05-26T02:51:51.178Z,9.747396
2023-05-26T02:52:51.199Z,9.747330
2023-05-26T02:53:51.164Z,9.747400
2023-05-26T02:54:51.202Z,9.747397
2023-05-26T02:55:51.160Z,9.747298
2023-05-26T02:56:51.132Z,9.747333
2023-05-26T02:57:51.172Z,9.747429
2023-05-26T02:58:51.132Z,9.747383
2023-05-26T02:59:51.134Z,9.747363
2023-05-26T03:00:51.129Z,9.747375
2023-05-26T03:01:51.272Z,9.747337
2023-05-26T03:02:51.191Z,9.747436
2023-05-26T03:03:51.134Z,9.747435
2023-05-26T03:04:51.095Z,9.747465
2023-05-26T03:05:51.087Z,9.747407
2023-05-26T03:06:51.101Z,9.747436
2023-05-26T03:07:51.055Z,9.747530
2023-05-26T03:08:51.064Z,9.747519
2023-05-26T03:09:51.047Z,9.747529
2023-05-26T03:11:10.656Z,9.747539
2023-05-26T03:11:52.053Z,9.747503
2023-05-26T03:12:51.051Z,9.747509
2023-05-26T03:13:51.018Z,9.747467
2023-05-26T03:14:51.022Z,9.747511
2023-05-26T03:15:51.037Z,9.747519
2023-05-26T03:16:51.064Z,9.747532
2023-05-26T03:17:51.026Z,9.747483
2023-05-26T03:18:50.991Z,9.747494
2023-05-26T03:19:50.979Z,9.747362
2023-05-26T03:20:51.000Z,9.747426
2023-05-26T03:21:50.956Z,9.747504
2023-05-26T03:22:52.024Z,9.747455
2023-05-26T03:23:50.940Z,9.747487
2023-05-26T03:24:50.949Z,9.747467
2023-05-26T03:25:50.948Z,9.747489
2023-05-26T03:26:50.904Z,9.747661
2023-05-26T03:27:50.928Z,9.747632
2023-05-26T03:28:50.894Z,9.747540
2023-05-26T03:29:50.900Z,9.747515
2023-05-26T03:30:50.926Z,9.747455
2023-05-26T03:31:51.025Z,9.747465
2023-05-26T03:32:50.916Z,9.747478
2023-05-26T03:33:50.863Z,9.747572
2023-05-26T03:34:50.884Z,9.747596
2023-05-26T03:35:50.873Z,9.747484
2023-05-26T03:36:50.838Z,9.747536
2023-05-26T03:37:50.841Z,9.747639
2023-05-26T03:38:50.836Z,9.747433
2023-05-26T03:39:50.841Z,9.747546
2023-05-26T03:40:50.845Z,9.747482
2023-05-26T03:41:50.809Z,9.747459
2023-05-26T03:42:50.805Z,9.747425
2023-05-26T03:43:50.808Z,9.747431
2023-05-26T03:44:50.807Z,9.747501
2023-05-26T03:45:50.770Z,9.747540
2023-05-26T03:46:50.816Z,9.747535
2023-05-26T03:47:50.818Z,9.747523
2023-05-26T03:48:50.773Z,9.747542
2023-05-26T03:49:50.768Z,9.747486
2023-05-26T03:50:50.735Z,9.747472
2023-05-26T03:51:50.766Z,9.747545
2023-05-26T03:52:50.716Z,9.747418
2023-05-26T03:53:50.719Z,9.747461
2023-05-26T03:54:50.731Z,9.747434
2023-05-26T03:55:50.698Z,9.747517
2023-05-26T03:56:50.699Z,9.747526
2023-05-26T03:57:50.697Z,9.747530
2023-05-26T03:58:50.779Z,9.747435
2023-05-26T03:59:50.698Z,9.747540
2023-05-26T04:00:50.656Z,9.747466
2023-05-26T04:01:50.775Z,9.747505
2023-05-26T04:02:50.761Z,9.747555
2023-05-26T04:03:50.700Z,9.747443
2023-05-26T04:04:50.659Z,9.747510
2023-05-26T04:05:50.627Z,9.747612
2023-05-26T04:06:50.613Z,9.747559
2023-05-26T04:07:50.610Z,9.747718
2023-05-26T04:08:50.623Z,9.747517
2023-05-26T04:09:50.627Z,9.747534
2023-05-26T04:10:50.633Z,9.747581
2023-05-26T04:11:50.588Z,9.747601
2023-05-26T04:12:50.580Z,9.747540
2023-05-26T04:13:50.599Z,9.747691
2023-05-26T04:14:50.564Z,9.747591
2023-05-26T04:15:50.544Z,9.747619
2023-05-26T04:16:50.586Z,9.747605
2023-05-26T04:17:50.611Z,9.747608
2023-05-26T04:18:50.580Z,9.747527
2023-05-26T04:19:50.511Z,9.747581
2023-05-26T04:20:50.569Z,9.747705
2023-05-26T04:21:50.505Z,9.747661
2023-05-26T04:22:50.541Z,9.747654
2023-05-26T04:23:50.522Z,9.747550
2023-05-26T04:24:50.513Z,9.747310
2023-05-26T04:25:50.479Z,9.747270
2023-05-26T04:26:50.464Z,9.747434
2023-05-26T04:27:50.507Z,9.747461
2023-05-26T04:28:50.462Z,9.747309
2023-05-26T04:29:50.444Z,9.747333
2023-05-26T04:30:50.425Z,9.747345
2023-05-26T04:31:50.522Z,9.747396
2023-05-26T04:32:50.483Z,9.747381
2023-05-26T04:33:50.406Z,9.747293
2023-05-26T04:34:50.453Z,9.747289
2023-05-26T04:35:50.396Z,9.747410
2023-05-26T04:36:50.420Z,9.747195
2023-05-26T04:37:50.410Z,9.747286
2023-05-26T04:38:50.376Z,9.747365
2023-05-26T04:39:50.371Z,9.747430
2023-05-26T04:40:50.356Z,9.747478
2023-05-26T04:41:50.381Z,9.747412
2023-05-26T04:42:50.339Z,9.747487
2023-05-26T04:43:50.352Z,9.747352
2023-05-26T04:44:50.351Z,9.747322
2023-05-26T04:45:50.518Z,9.747389
2023-05-26T04:46:51.347Z,9.747503
2023-05-26T04:47:50.335Z,9.747297
2023-05-26T04:48:50.298Z,9.747096
2023-05-26T04:49:50.298Z,9.747321
2023-05-26T04:50:50.327Z,9.747390
2023-05-26T04:51:50.301Z,9.747119
2023-05-26T04:52:50.272Z,9.747171
2023-05-26T04:53:50.261Z,9.747187
2023-05-26T04:54:50.254Z,9.747403
2023-05-26T04:55:50.274Z,9.747371
2023-05-26T04:56:50.238Z,9.747553
2023-05-26T04:57:50.231Z,9.747544
2023-05-26T04:58:50.223Z,9.747481
2023-05-26T04:59:50.232Z,9.747408
2023-05-26T05:00:50.235Z,9.747461
2023-05-26T05:01:50.235Z,9.747375
2023-05-26T05:02:50.231Z,9.747308
2023-05-26T05:03:50.257Z,9.747339
2023-05-26T05:04:50.188Z,9.747509
2023-05-26T05:05:50.192Z,9.747429
2023-05-26T05:06:50.162Z,9.747183
2023-05-26T05:07:50.164Z,9.747338
2023-05-26T05:08:50.140Z,9.747473
2023-05-26T05:09:50.154Z,9.747421
2023-05-26T05:10:50.149Z,9.747403
2023-05-26T05:11:50.123Z,9.747482
2023-05-26T05:12:50.120Z,9.747494
2023-05-26T05:13:50.115Z,9.747581
2023-05-26T05:14:50.130Z,9.747470
2023-05-26T05:15:50.116Z,9.747470
2023-05-26T05:16:50.102Z,9.747286
2023-05-26T05:17:50.089Z,9.747287
2023-05-26T05:18:50.064Z,9.747456
2023-05-26T05:19:58.977Z,9.747453
2023-05-26T05:20:52.127Z,9.747263
2023-05-26T05:21:50.048Z,9.747332
2023-05-26T05:22:50.060Z,9.747401
2023-05-26T05:23:50.049Z,9.747452
2023-05-26T05:24:50.055Z,9.747504
2023-05-26T05:25:50.011Z,9.747490
2023-05-26T05:26:50.001Z,9.747437
2023-05-26T05:27:50.003Z,9.747436
2023-05-26T05:28:50.019Z,9.747374
2023-05-26T05:29:49.999Z,9.747401
2023-05-26T05:30:50.219Z,9.747478
2023-05-26T05:31:50.012Z,9.747411
2023-05-26T05:32:50.021Z,9.747439
2023-05-26T05:33:49.977Z,9.747407
2023-05-26T05:34:49.955Z,9.747354
2023-05-26T05:35:51.591Z,9.747384
2023-05-26T05:36:49.931Z,9.747346
2023-05-26T05:37:49.972Z,9.747420
2023-05-26T05:38:49.954Z,9.747430
2023-05-26T05:39:49.920Z,9.747478
2023-05-26T05:40:49.912Z,9.747352
2023-05-26T05:41:49.904Z,9.747263
2023-05-26T05:42:49.937Z,9.747209
2023-05-26T05:43:49.885Z,9.747327
2023-05-26T05:44:49.870Z,9.747409
2023-05-26T05:45:49.878Z,9.747426
2023-05-26T05:46:49.955Z,9.747478
2023-05-26T05:47:50.927Z,9.747465
2023-05-26T05:48:49.841Z,9.747381
2023-05-26T05:49:49.853Z,9.747333
2023-05-26T05:50:49.826Z,9.747283
2023-05-26T05:51:49.845Z,9.747405
2023-05-26T05:52:49.843Z,9.747345
2023-05-26T05:53:49.802Z,9.747500
2023-05-26T05:54:49.822Z,9.747527
2023-05-26T05:55:49.801Z,9.747207
2023-05-26T05:56:50.239Z,9.747161
2023-05-26T05:57:49.771Z,9.747379
2023-05-26T05:58:49.772Z,9.747379
2023-05-26T05:59:49.784Z,9.747391
2023-05-26T06:00:49.746Z,9.747396
2023-05-26T06:01:49.785Z,9.747313
2023-05-26T06:02:49.837Z,9.747313
2023-05-26T06:03:49.896Z,9.747309
2023-05-26T06:04:49.727Z,9.747375
2023-05-26T06:05:49.720Z,9.747152
2023-05-26T06:06:49.744Z,9.747312
2023-05-26T06:07:49.701Z,9.747289
2023-05-26T06:08:49.704Z,9.747155
2023-05-26T06:09:50.677Z,9.747216
2023-05-26T06:10:49.712Z,9.747305
2023-05-26T06:11:49.685Z,9.747437
2023-05-26T06:12:49.663Z,9.747471
2023-05-26T06:13:49.650Z,9.747399
2023-05-26T06:14:49.639Z,9.747353
2023-05-26T06:15:49.661Z,9.747379
2023-05-26T06:16:50.706Z,9.747437
2023-05-26T06:17:49.654Z,9.747421
2023-05-26T06:18:49.606Z,9.747388
2023-05-26T06:19:49.610Z,9.747372
2023-05-26T06:20:49.855Z,9.747404
2023-05-26T06:21:49.592Z,9.747292
2023-05-26T06:22:49.582Z,9.747159
2023-05-26T06:23:49.566Z,9.747332
2023-05-26T06:24:49.570Z,9.747434
2023-05-26T06:25:49.577Z,9.747346
2023-05-26T06:26:49.550Z,9.747360
2023-05-26T06:27:49.537Z,9.747371
2023-05-26T06:28:49.535Z,9.747339
2023-05-26T06:29:49.547Z,9.747489
2023-05-26T06:30:49.544Z,9.747424
2023-05-26T06:31:49.579Z,9.747425
2023-05-26T06:32:49.532Z,9.747433
2023-05-26T06:33:49.499Z,9.747416
2023-05-26T06:34:49.510Z,9.747423
2023-05-26T06:35:49.484Z,9.747522
2023-05-26T06:36:49.472Z,9.747475
2023-05-26T06:37:49.467Z,9.747462
2023-05-26T06:38:50.465Z,9.747447
2023-05-26T06:39:49.477Z,9.747382
2023-05-26T06:40:49.438Z,9.747372
2023-05-26T06:41:49.439Z,9.747343
2023-05-26T06:42:49.432Z,9.747273
2023-05-26T06:43:49.441Z,9.747396
2023-05-26T06:44:51.494Z,9.747367
2023-05-26T06:45:50.404Z,9.747360
2023-05-26T06:46:49.424Z,9.747437
2023-05-26T06:47:49.399Z,9.747465
2023-05-26T06:48:49.415Z,9.747486
2023-05-26T06:49:49.367Z,9.747373
2023-05-26T06:50:49.361Z,9.747427
2023-05-26T06:51:49.356Z,9.747409
2023-05-26T06:52:49.349Z,9.747414
2023-05-26T06:53:49.374Z,9.747422
2023-05-26T06:54:49.337Z,9.747600
2023-05-26T06:55:49.324Z,9.747453
2023-05-26T06:56:49.331Z,9.747511
2023-05-26T06:57:49.359Z,9.747545
2023-05-26T06:58:49.329Z,9.747549
2023-05-26T06:59:49.310Z,9.747595
2023-05-26T07:00:49.291Z,9.747519
2023-05-26T07:01:49.303Z,9.747568
2023-05-26T07:02:49.367Z,9.747532
2023-05-26T07:03:49.262Z,9.747517
2023-05-26T07:04:49.253Z,9.747497
2023-05-26T07:05:57.082Z,9.747526
2023-05-26T07:06:51.339Z,9.747472
2023-05-26T07:07:49.270Z,9.747514
2023-05-26T07:08:49.221Z,9.747391
2023-05-26T07:09:49.211Z,9.747466
2023-05-26T07:10:49.208Z,9.747542
2023-05-26T07:11:49.206Z,9.747433
2023-05-26T07:12:49.219Z,9.747543
2023-05-26T07:13:49.191Z,9.747547
2023-05-26T07:14:49.171Z,9.747437
2023-05-26T07:15:49.208Z,9.747583
2023-05-26T07:16:49.243Z,9.747542
2023-05-26T07:17:49.207Z,9.747382
2023-05-26T07:18:49.151Z,9.747402
2023-05-26T07:19:49.165Z,9.747513
2023-05-26T07:20:49.632Z,9.747553
2023-05-26T07:21:49.149Z,9.747464
2023-05-26T07:22:49.111Z,9.747451
2023-05-26T07:23:49.119Z,9.747436
2023-05-26T07:24:49.132Z,9.747377
2023-05-26T07:25:49.092Z,9.747353
2023-05-26T07:26:49.116Z,9.747417
2023-05-26T07:27:49.079Z,9.747387
2023-05-26T07:28:49.073Z,9.747416
2023-05-26T07:29:49.073Z,9.747406
2023-05-26T07:30:49.123Z,9.747409
2023-05-26T07:31:49.118Z,9.747428
2023-05-26T07:32:49.098Z,9.747445
2023-05-26T07:33:49.039Z,9.747480
2023-05-26T07:34:49.020Z,9.747474
2023-05-26T07:35:49.233Z,9.747462
2023-05-26T07:36:49.005Z,9.747437
2023-05-26T07:37:48.992Z,9.747501
2023-05-26T07:38:49.018Z,9.747506
2023-05-26T07:39:48.978Z,9.747470
2023-05-26T07:40:49.002Z,9.747459
2023-05-26T07:41:51.137Z,9.747456
2023-05-26T07:42:48.953Z,9.747452
2023-05-26T07:43:48.951Z,9.747472
2023-05-26T07:44:48.990Z,9.747580
2023-05-26T07:45:49.282Z,9.747390
2023-05-26T07:46:49.014Z,9.747366
2023-05-26T07:47:48.948Z,9.747409
2023-05-26T07:48:48.916Z,9.747391
2023-05-26T07:49:48.976Z,9.747449
2023-05-26T07:50:48.910Z,9.747501
2023-05-26T07:51:48.900Z,9.747492
2023-05-26T07:52:48.872Z,9.747458
2023-05-26T07:53:48.924Z,9.747411
2023-05-26T07:54:48.904Z,9.747477
2023-05-26T07:55:49.112Z,9.747416
2023-05-26T07:56:48.842Z,9.747335
2023-05-26T07:57:48.854Z,9.747330
2023-05-26T07:58:48.865Z,9.747413
2023-05-26T07:59:49.837Z,9.747474
2023-05-26T08:00:48.831Z,9.747405
2023-05-26T08:01:48.854Z,9.747410
2023-05-26T08:02:48.895Z,9.747422
2023-05-26T08:03:49.007Z,9.747464
2023-05-26T08:04:48.803Z,9.747499
2023-05-26T08:05:49.128Z,9.747544
2023-05-26T08:06:48.777Z,9.747483
2023-05-26T08:07:48.765Z,9.747199
2023-05-26T08:08:48.776Z,9.747243
2023-05-26T08:09:48.747Z,9.747291
2023-05-26T08:10:48.737Z,9.747445
2023-05-26T08:11:48.727Z,9.747475
2023-05-26T08:12:48.754Z,9.747461
2023-05-26T08:13:48.764Z,9.747380
2023-05-26T08:14:48.715Z,9.747371
2023-05-26T08:15:49.156Z,9.747221
2023-05-26T08:16:48.698Z,9.747341
2023-05-26T08:17:48.820Z,9.747462
2023-05-26T08:18:48.688Z,9.747371
2023-05-26T08:19:48.672Z,9.747333
2023-05-26T08:20:50.213Z,9.747355
2023-05-26T08:21:48.663Z,9.747440
2023-05-26T08:22:48.724Z,9.747381
2023-05-26T08:23:48.659Z,9.747509
2023-05-26T08:24:48.641Z,9.747527
2023-05-26T08:25:48.628Z,9.747506
2023-05-26T08:26:48.627Z,9.747516
2023-05-26T08:27:48.645Z,9.747506
2023-05-26T08:28:48.636Z,9.747544
2023-05-26T08:29:48.604Z,9.747465
2023-05-26T08:30:48.607Z,9.747520
2023-05-26T08:31:48.724Z,9.747452
2023-05-26T08:32:48.643Z,9.747506
2023-05-26T08:33:48.582Z,9.747494
2023-05-26T08:34:48.574Z,9.747440
2023-05-26T08:35:51.262Z,9.747420
2023-05-26T08:36:49.592Z,9.747433
2023-05-26T08:37:48.576Z,9.747419
2023-05-26T08:38:48.538Z,9.747560
2023-05-26T08:39:48.550Z,9.747486
2023-05-26T08:40:48.520Z,9.747459
2023-05-26T08:41:48.594Z,9.747438
2023-05-26T08:42:48.511Z,9.747444
2023-05-26T08:43:55.850Z,9.747553
2023-05-26T08:44:50.552Z,9.747465
2023-05-26T08:45:48.669Z,9.747474
2023-05-26T08:46:48.511Z,9.747538
2023-05-26T08:47:49.045Z,9.747566
2023-05-26T08:48:48.457Z,9.747554
2023-05-26T08:49:48.449Z,9.747546
2023-05-26T08:50:48.494Z,9.747607
2023-05-26T08:51:48.492Z,9.747516
2023-05-26T08:53:05.023Z,9.747561
2023-05-26T08:53:50.421Z,9.747499
2023-05-26T08:54:48.413Z,9.747487
2023-05-26T08:55:48.602Z,9.747458
2023-05-26T08:56:48.396Z,9.747460
2023-05-26T08:57:48.406Z,9.747436
2023-05-26T08:58:48.379Z,9.747518
2023-05-26T08:59:48.382Z,9.747558
2023-05-26T09:00:48.684Z,9.747515
2023-05-26T09:01:48.430Z,9.747547
2023-05-26T09:02:48.430Z,9.747618
2023-05-26T09:03:48.394Z,9.747491
2023-05-26T09:04:48.342Z,9.747463
2023-05-26T09:05:48.371Z,9.747429
2023-05-26T09:06:58.555Z,9.747487
2023-05-26T09:07:49.308Z,9.747565
2023-05-26T09:08:48.307Z,9.747549
2023-05-26T09:09:48.316Z,9.747506
2023-05-26T09:10:48.531Z,9.747492
2023-05-26T09:12:50.267Z,9.747483
2023-05-26T09:13:48.258Z,9.747594
2023-05-26T09:14:48.292Z,9.747507
2023-05-26T09:15:48.238Z,9.747511
2023-05-26T09:16:48.259Z,9.747452
2023-05-26T09:17:48.236Z,9.747608
2023-05-26T09:18:48.245Z,9.747634
2023-05-26T09:19:48.242Z,9.747557
2023-05-26T09:20:48.599Z,9.747573
2023-05-26T09:21:48.197Z,9.747401
2023-05-26T09:22:48.201Z,9.747444
2023-05-26T09:23:51.122Z,9.747440
2023-05-26T09:24:48.213Z,9.747458
2023-05-26T09:25:48.261Z,9.747527
2023-05-26T09:26:48.162Z,9.747487
2023-05-26T09:27:48.159Z,9.747497
2023-05-26T09:28:48.179Z,9.747522
2023-05-26T09:29:48.145Z,9.747586
2023-05-26T09:30:48.206Z,9.747540
2023-05-26T09:31:48.127Z,9.747493
2023-05-26T09:32:48.141Z,9.747429
2023-05-26T09:33:48.141Z,9.747396
2023-05-26T09:34:48.112Z,9.747265
2023-05-26T09:35:48.096Z,9.747384
2023-05-26T09:36:48.101Z,9.747444
2023-05-26T09:37:48.096Z,9.747409
2023-05-26T09:38:48.101Z,9.747564
2023-05-26T09:39:48.068Z,9.747395
2023-05-26T09:40:48.070Z,9.747331
2023-05-26T09:41:48.081Z,9.747384
2023-05-26T09:42:48.100Z,9.747404
2023-05-26T09:43:48.061Z,9.747349
2023-05-26T09:44:48.055Z,9.747339
2023-05-26T09:45:48.043Z,9.747411
2023-05-26T09:46:48.056Z,9.747489
2023-05-26T09:47:48.062Z,9.747384
2023-05-26T09:48:48.002Z,9.747331
2023-05-26T09:49:48.000Z,9.747289
2023-05-26T09:50:48.045Z,9.747258
2023-05-26T09:51:54.093Z,9.747351
2023-05-26T09:52:49.988Z,9.747257
2023-05-26T09:53:47.974Z,9.747313
2023-05-26T09:54:47.967Z,9.747291
2023-05-26T09:55:47.946Z,9.747388
2023-05-26T09:56:47.973Z,9.747312
2023-05-26T09:57:47.968Z,9.747264
2023-05-26T09:58:47.924Z,9.747274
2023-05-26T09:59:47.920Z,9.747337
2023-05-26T10:00:47.921Z,9.747347
2023-05-26T10:01:48.017Z,9.747376
2023-05-26T10:02:47.956Z,9.747298
2023-05-26T10:03:48.905Z,9.747256
2023-05-26T10:04:47.932Z,9.747327
2023-05-26T10:05:47.871Z,9.747232
2023-05-26T10:06:47.898Z,9.747136
2023-05-26T10:07:47.859Z,9.747198
2023-05-26T10:08:47.861Z,9.747201
2023-05-26T10:09:47.876Z,9.747221
2023-05-26T10:10:47.913Z,9.747304
2023-05-26T10:12:47.824Z,9.747370
2023-05-26T10:13:47.814Z,9.747366
2023-05-26T10:14:47.830Z,9.747327
2023-05-26T10:15:47.821Z,9.747329
2023-05-26T10:16:47.889Z,9.747330
2023-05-26T10:17:47.838Z,9.747306
2023-05-26T10:18:47.788Z,9.747345
2023-05-26T10:19:47.789Z,9.747374
2023-05-26T10:20:47.866Z,9.747345
2023-05-26T10:21:47.793Z,9.747313
2023-05-26T10:22:47.750Z,9.747316
2023-05-26T10:23:47.754Z,9.747311
2023-05-26T10:24:47.746Z,9.747321
2023-05-26T10:25:47.747Z,9.747357
2023-05-26T10:26:47.716Z,9.747329
2023-05-26T10:27:47.707Z,9.747370
2023-05-26T10:28:47.717Z,9.747308
2023-05-26T10:29:47.697Z,9.747169
2023-05-26T10:30:47.719Z,9.747252
2023-05-26T10:31:47.713Z,9.747293
2023-05-26T10:32:47.780Z,9.747317
2023-05-26T10:33:47.672Z,9.747326
2023-05-26T10:34:47.680Z,9.747306
2023-05-26T10:35:47.686Z,9.747363
2023-05-26T10:36:47.720Z,9.747318
2023-05-26T10:37:47.632Z,9.747307
2023-05-26T10:38:47.659Z,9.747282
2023-05-26T10:39:49.827Z,9.747188
2023-05-26T10:40:47.610Z,9.747293
2023-05-26T10:41:47.605Z,9.747381
2023-05-26T10:42:47.594Z,9.747330
2023-05-26T10:43:47.591Z,9.747138
2023-05-26T10:44:47.627Z,9.747222
2023-05-26T10:45:47.610Z,9.747319
2023-05-26T10:46:47.743Z,9.747325
2023-05-26T10:47:47.653Z,9.747398
2023-05-26T10:48:47.579Z,9.747351
2023-05-26T10:49:47.593Z,9.747356
2023-05-26T10:50:47.546Z,9.747654
2023-05-26T10:51:47.535Z,9.747436
2023-05-26T10:52:47.537Z,9.747655
2023-05-26T10:53:47.552Z,9.747576
2023-05-26T10:54:47.544Z,9.747480
2023-05-26T10:55:47.503Z,9.747449
2023-05-26T10:56:47.513Z,9.747459
2023-05-26T10:57:47.481Z,9.747530
2023-05-26T10:58:47.538Z,9.747255
2023-05-26T10:59:47.474Z,9.747353
2023-05-26T11:00:47.568Z,9.747392
2023-05-26T11:01:47.525Z,9.747375
2023-05-26T11:02:47.512Z,9.747470
2023-05-26T11:03:47.678Z,9.747304
2023-05-26T11:04:47.425Z,9.747320
2023-05-26T11:05:47.423Z,9.747318
2023-05-26T11:06:47.509Z,9.747358
2023-05-26T11:07:47.500Z,9.747167
2023-05-26T11:08:47.438Z,9.747226
2023-05-26T11:09:47.409Z,9.747334
2023-05-26T11:10:47.454Z,9.747372
2023-05-26T11:11:47.378Z,9.747208
2023-05-26T11:12:47.475Z,9.747159
2023-05-26T11:13:47.397Z,9.747369
2023-05-26T11:14:47.382Z,9.747335
2023-05-26T11:15:47.361Z,9.747405
2023-05-26T11:16:47.366Z,9.747293
2023-05-26T11:17:47.433Z,9.747339
2023-05-26T11:18:47.336Z,9.747326
2023-05-26T11:19:47.355Z,9.747363
2023-05-26T11:20:47.372Z,9.747362
2023-05-26T11:21:47.302Z,9.747437
2023-05-26T11:22:47.329Z,9.747375
2023-05-26T11:23:47.298Z,9.747300
2023-05-26T11:24:47.425Z,9.747201
2023-05-26T11:25:47.309Z,9.747168
2023-05-26T11:26:47.298Z,9.747236
2023-05-26T11:27:47.293Z,9.747418
2023-05-26T11:28:47.264Z,9.747391
2023-05-26T11:29:47.245Z,9.747194
2023-05-26T11:30:47.248Z,9.747409
2023-05-26T11:31:48.203Z,9.747398
2023-05-26T11:32:47.271Z,9.747288
2023-05-26T11:33:47.226Z,9.747389
2023-05-26T11:34:47.200Z,9.747407
2023-05-26T11:35:47.205Z,9.747305
2023-05-26T11:36:47.228Z,9.747248
2023-05-26T11:37:47.191Z,9.747213
2023-05-26T11:38:47.176Z,9.747291
2023-05-26T11:39:47.176Z,9.747158
2023-05-26T11:40:47.218Z,9.747299
2023-05-26T11:41:47.199Z,9.747216
2023-05-26T11:42:47.160Z,9.747193
2023-05-26T11:43:47.156Z,9.747023
2023-05-26T11:44:47.126Z,9.747080
2023-05-26T11:45:47.158Z,9.747319
2023-05-26T11:46:47.129Z,9.747255